Partridge, Illinois
Current Conditions -  °F | °C
As of 1:35 PM on Thursday 18 Dec 2014 (Local Time) from KC75 Reporting Station
Scattered Clouds Scattered Clouds  
Wind Chill: 27°   Ceiling: Unl
Heat Index: 27°   Visibility: 10mi
Dew Point: 19°   Wind: 3mph
Humidity: 70%   Direction: 340°NNW
Pressure: 30.25"   Gusts: NA
Location:  40.7942°N, 89.4075°W
Report Text: KC75 181935Z AUTO 34003KT 10SM SCT048 SCT050 M03/M07 A3025 RMK AO2 T10281075
Loading
Personal Weather Stations






























Interactive Weather Map New forecast layout! Learn more

10-Day Weather Forecast

Advertisements
Track Severe Weather on mobile